x

Molasses Reef, Fl (mlrf1) Weather Station

6:00pm - Sun 24th May 2015 All times are EDT. -4 hours from GMT.

  • Wind
    18mph, 20mph gusts
  • Sea Temp 84°f
  • Air Temp 82°f
  • Sea Pressure 1018.8mb
  • Molasses Reef, Fl
  • Molasses Reef, Fl

More Historic Weather Station data

Upgrade to MSW Pro to gain access to the past 30 days of data for over 8000 Wavebouys and Weather Stations around the globe.

Join Pro

Comparision Forecast

View Surf forecast
   
Sun 05/24 6:00pm 18 20 mph 1018.8mb 84f 82f
5:00pm 17 20 mph 1019.2mb 84f 82f
4:00pm 17 18 mph 1019.3mb 84f 81f
3:00pm 17 20 mph 1019.8mb 84f 82f
2:00pm 18 20 mph 1020.3mb 84f 82f
1:00pm 18
mph
1020.8mb 83f 81f
12:00pm 15 16 mph 1021.4mb 83f 81f
11:00am 17 18 mph 1021.3mb 83f 81f
10:00am 17 18 mph 1021.1mb 83f 81f
9:00am 20 22 mph 1020.8mb 82f 81f
8:00am 18 21 mph 1020.4mb 82f 81f
7:00am 17 20 mph 1020mb 82f 80f
6:00am 17 20 mph 1019.7mb 82f 80f
5:00am 17 20 mph 1019.3mb 82f 80f
4:00am 20 21 mph 1019.2mb 82f 80f
3:00am 21 22 mph 1019.3mb 83f 80f
2:00am 18 21 mph 1020.1mb 83f 81f
1:00am 21 23 mph 1020.6mb 83f 81f
12:00am 20 22 mph 1020.9mb 83f 82f
Sat 05/23 11:00pm 22 24 mph 1020.9mb 83f 82f
10:00pm 22 24 mph 1020.5mb 83f 81f
9:00pm 21 22 mph 1020.4mb 83f 81f
8:00pm 18 21 mph 1020.4mb 84f 82f
7:00pm 20 21 mph 1020mb 85f 81f
6:00pm 15 17 mph 1020.1mb 85f 82f
5:00pm 15 16 mph 1020.1mb 85f 81f
4:00pm 14 15 mph 1021mb 85f 81f
3:00pm 15 16 mph 1021.2mb 84f 82f
2:00pm 14 15 mph 1021.8mb 84f 82f
1:00pm 13 15 mph 1022.3mb 83f 82f
12:00pm 13 15 mph 1022.5mb 83f 82f
11:00am 11 13 mph 1022.4mb 83f 82f
10:00am 9 11 mph 1022.1mb 83f 82f
9:00am 10 13 mph 1021.6mb 83f 82f
8:00am 10 11 mph 1020.8mb 82f 82f
7:00am 6
mph
1020.2mb 82f 81f
6:00am 5 7 mph 1019.8mb 82f 81f
5:00am 7 8 mph 1019.5mb 82f 81f
4:00am 7 8 mph 1019.3mb 82f 81f
3:00am 7 8 mph 1019.3mb 82f 81f
2:00am 7
mph
1020.2mb 82f 81f
1:00am 3
mph
1020.6mb 82f 81f
12:00am 7 8 mph 1020.7mb 82f 81f
Fri 05/22 11:00pm 7 8 mph 1020.6mb 82f 81f
10:00pm 9
mph
1020.1mb 82f 81f
9:00pm 9 10 mph 1019.8mb 82f 80f
8:00pm 14 15 mph 1019.5mb 82f 79f
7:00pm 1 2 mph 1019.3mb 83f 82f
6:00pm 5 6 mph 1019mb 83f 82f
5:00pm 7 8 mph 1018.2mb 83f 82f
4:00pm 13
mph
1018.3mb 83f 82f
3:00pm 10
mph
1018.9mb 83f 82f
2:00pm 5
mph
1019.1mb 83f 82f
1:00pm  -  1 mph 1019.2mb 82f 82f
12:00pm 1 2 mph 1019.4mb 82f 82f
11:00am 1 2 mph 1019mb 82f 81f
10:00am 2
mph
1018.7mb 82f 81f
9:00am 3
mph
1018.7mb 82f 80f
8:00am 5
mph
1018.1mb 82f 80f
7:00am 6 7 mph 1017.7mb 82f 80f
6:00am 2 3 mph 1017.2mb 82f 79f
5:00am 7
mph
1016.5mb 82f 81f
4:00am 2
mph
1016.7mb 82f 82f
3:00am 3 6 mph 1016.5mb 82f 82f
2:00am 8 9 mph 1016.8mb 82f 82f
1:00am  -  1 mph 1017.3mb 82f 83f
12:00am 3
mph
1017.4mb 82f 83f
Thu 05/21 11:00pm 5 6 mph 1016.7mb 82f 83f
10:00pm 9
mph
1015.9mb 81f 82f
9:00pm 10 11 mph 1015.7mb 81f 82f
8:00pm 9 10 mph 1015.6mb 82f 82f
7:00pm 13 14 mph 1014.5mb 82f 81f
6:00pm 8 10 mph 1015mb 82f 81f
5:00pm 13 14 mph 1014.8mb 83f 82f
4:00pm 11 13 mph 1014.9mb 83f 81f
3:00pm 10 11 mph 1015.4mb 82f 82f
2:00pm 13 14 mph 1016.1mb 83f 82f
1:00pm 9 10 mph 1016.6mb 82f 81f
12:00pm 9 10 mph 1016.9mb 82f 81f
11:00am 8 9 mph 1017mb 82f 81f
10:00am 8
mph
1016.5mb 82f 81f
9:00am 7 8 mph 1016mb 82f 81f
8:00am 7 8 mph 1015.8mb 82f 81f
7:00am 9 10 mph 1015.7mb 82f 80f
6:00am 9
mph
1015.2mb 82f 80f
5:00am 9 10 mph 1015.2mb 82f 80f
4:00am 9 10 mph 1015mb 82f 80f
3:00am 8 9 mph 1015.3mb 82f 80f
2:00am 8
mph
1015.6mb 82f 80f
1:00am 5
mph
1016.2mb 82f 80f
12:00am  -  1 mph 1016.7mb 82f 80f